Time;durP1;ratioP1;P1;durP2;ratioP2;P2;SDS_P1;SDS_P2;PMS_P1;PMS_P2;Temp;Humidity;BMP_temperature;BMP_pressure;BME280_temperature;BME280_humidity;BME280_pressure;Samples;Min_cycle;Max_cycle;Signal;HPM_P1;HPM_P2
2022/11/21 00:00:21;;;;;;;27.90;13.43;;;;;;;-141.97;100.00;47807.41;5010967;28;20158;-91
2022/11/21 00:02:46;;;;;;;28.60;13.07;;;;;;;-141.97;100.00;47818.94;5018862;28;20249;-91
2022/11/21 00:05:12;;;;;;;27.13;13.27;;;;;;;-141.97;100.00;47726.66;5013767;28;20210;-91
2022/11/21 00:07:37;;;;;;;27.90;13.50;;;;;;;-141.97;100.00;47972.72;5013629;28;20181;-91
2022/11/21 00:10:03;;;;;;;31.30;13.57;;;;;;;-141.97;100.00;47757.41;4996953;28;20269;-90
2022/11/21 00:12:28;;;;;;;27.90;13.57;;;;;;;-141.97;100.00;47857.38;4996196;28;20179;-92
2022/11/21 00:14:53;;;;;;;31.37;15.57;;;;;;;-141.97;100.00;47815.09;4996840;28;20258;-92
2022/11/21 00:17:19;;;;;;;30.53;15.87;;;;;;;-141.97;100.00;47888.13;5011693;28;20208;-91
2022/11/21 00:19:44;;;;;;;31.57;16.20;;;;;;;-141.97;100.00;47786.25;4995200;28;20178;-91
2022/11/21 00:22:09;;;;;;;29.03;15.50;;;;;;;-141.97;100.00;47941.94;5012465;28;20191;-91
2022/11/21 00:24:35;;;;;;;29.97;15.57;;;;;;;-141.97;100.00;47778.56;5011363;28;20228;-91
2022/11/21 00:27:00;;;;;;;50.27;26.40;;;;;;;-141.97;100.00;47995.78;5012593;28;20619;-91
2022/11/21 00:29:27;;;;;;;51.23;25.80;;;;;;;-141.97;100.00;47878.53;5013464;28;20170;-91
2022/11/21 00:31:52;;;;;;;31.53;15.00;;;;;;;-141.97;100.00;47820.84;5011251;28;20177;-90
2022/11/21 00:34:18;;;;;;;35.60;17.73;;;;;;;-141.97;100.00;47955.41;5012384;28;20614;-91
2022/11/21 00:36:43;;;;;;;30.67;14.73;;;;;;;-141.97;100.00;47801.63;5010887;28;20261;-90
2022/11/21 00:39:08;;;;;;;31.97;14.13;;;;;;;-141.97;100.00;47938.09;5012362;28;20177;-90
2022/11/21 00:41:34;;;;;;;29.73;14.13;;;;;;;-141.97;100.00;47803.56;5011142;28;20179;-88
2022/11/21 00:43:59;;;;;;;29.13;15.03;;;;;;;-141.97;100.00;47767.03;5013568;28;20174;-90
2022/11/21 00:46:25;;;;;;;27.63;15.07;;;;;;;-141.97;100.00;47755.50;5019904;28;20193;-90
2022/11/21 00:48:50;;;;;;;28.67;13.80;;;;;;;-141.97;100.00;47953.50;5036864;28;20166;-89
2022/11/21 00:51:16;;;;;;;30.73;15.03;;;;;;;-141.97;100.00;47951.56;5021100;28;20186;-90
2022/11/21 00:53:41;;;;;;;26.27;13.30;;;;;;;-141.97;100.00;47865.06;4995373;28;20228;-89
2022/11/21 00:56:07;;;;;;;30.40;13.10;;;;;;;-141.97;100.00;47757.41;4994284;28;20666;-90
2022/11/21 00:58:32;;;;;;;27.53;12.30;;;;;;;-141.97;100.00;47749.72;4994269;28;20185;-90
2022/11/21 01:01:12;;;;;;;28.97;13.57;;;;;;;-141.97;100.00;47788.19;5011993;28;20261;-90
2022/11/21 01:03:38;;;;;;;27.77;13.33;;;;;;;-141.97;100.00;47782.41;4996048;28;20197;-90
2022/11/21 01:06:07;;;;;;;26.43;13.33;;;;;;;-141.97;100.00;47834.31;5014898;28;20198;-90
2022/11/21 01:08:35;;;;;;;29.93;14.17;;;;;;;-141.97;100.00;47907.34;4998564;28;20171;-90
2022/11/21 01:11:10;;;;;;;23.67;12.27;;;;;;;-141.97;100.00;47830.47;4999131;28;20194;-90
2022/11/21 01:13:36;;;;;;;25.93;13.27;;;;;;;-141.97;100.00;47966.94;5016144;28;20173;-90
2022/11/21 01:16:06;;;;;;;27.43;13.40;;;;;;;-141.97;100.00;47842.00;4998674;28;20172;-90
2022/11/21 01:18:31;;;;;;;27.50;13.43;;;;;;;-141.97;100.00;47938.09;4998591;28;20641;-90
2022/11/21 01:21:04;;;;;;;28.97;13.00;;;;;;;-141.97;100.00;47822.78;5016417;28;20171;-90
2022/11/21 01:23:30;;;;;;;25.70;12.93;;;;;;;-141.97;100.00;47953.50;5014529;28;20244;-89
2022/11/21 01:26:01;;;;;;;23.53;11.87;;;;;;;-141.97;100.00;47872.75;5017357;28;20273;-91
2022/11/21 01:28:26;;;;;;;29.63;12.90;;;;;;;-141.97;100.00;47734.34;5017237;28;20174;-90
2022/11/21 01:30:52;;;;;;;26.47;12.70;;;;;;;-141.97;100.00;47753.56;5017129;28;20159;-90
2022/11/21 01:33:17;;;;;;;27.97;12.90;;;;;;;-141.97;100.00;47718.97;4999464;28;20205;-90
2022/11/21 01:35:42;;;;;;;26.17;12.40;;;;;;;-141.97;100.00;47932.34;5007743;28;20174;-90
2022/11/21 01:38:08;;;;;;;29.10;13.17;;;;;;;-141.97;100.00;47972.72;5017963;28;20245;-90
2022/11/21 01:40:38;;;;;;;32.03;15.57;;;;;;;-141.97;100.00;48036.16;5015662;28;20170;-89
2022/11/21 01:43:11;;;;;;;39.57;17.40;;;;;;;-141.97;100.00;47765.09;4998154;28;20228;-89
2022/11/21 01:45:59;;;;;;;36.43;16.47;;;;;;;-141.97;100.00;47857.38;5015355;28;20222;-90
2022/11/21 01:48:43;;;;;;;27.63;13.67;;;;;;;-141.97;100.00;47861.22;5014125;28;20233;-89
2022/11/21 01:51:18;;;;;;;26.20;12.93;;;;;;;-141.97;100.00;47853.53;4997795;28;20173;-89
2022/11/21 01:53:48;;;;;;;25.80;12.27;;;;;;;-141.97;100.00;47780.47;4998237;28;20170;-89
2022/11/21 01:56:14;;;;;;;25.93;12.97;;;;;;;-141.97;100.00;47834.31;5015008;28;20182;-89
2022/11/21 01:58:41;;;;;;;27.57;12.33;;;;;;;-141.97;100.00;47857.38;4999883;28;20238;-89
2022/11/21 02:01:07;;;;;;;26.30;12.03;;;;;;;-141.97;100.00;47730.50;5010981;28;20790;-89
2022/11/21 02:03:36;;;;;;;21.70;10.00;;;;;;;-141.97;100.00;47801.63;4978550;28;20216;-90
2022/11/21 02:06:02;;;;;;;22.63;11.20;;;;;;;-141.97;100.00;47845.84;4978383;28;20548;-90
2022/11/21 02:08:29;;;;;;;22.13;11.27;;;;;;;-141.97;100.00;47722.81;4994226;28;20197;-89
2022/11/21 02:11:26;;;;;;;25.97;12.27;;;;;;;-141.97;100.00;47849.69;4995399;28;20174;-89
2022/11/21 02:13:52;;;;;;;26.23;12.07;;;;;;;-141.97;100.00;47861.22;4995491;28;20625;-89
2022/11/21 02:16:17;;;;;;;26.23;12.13;;;;;;;-141.97;100.00;47818.94;4977450;28;20173;-90
2022/11/21 02:18:42;;;;;;;25.77;11.73;;;;;;;-141.97;100.00;47765.09;4995478;28;20168;-90
2022/11/21 02:21:49;;;;;;;24.93;12.10;;;;;;;-141.97;100.00;47878.53;4978901;28;20183;-90
2022/11/21 02:24:42;;;;;;;23.57;11.30;;;;;;;-141.97;100.00;47868.91;4920307;29;20252;-89
2022/11/21 02:27:09;;;;;;;28.70;12.90;;;;;;;-141.97;100.00;47828.53;4920032;29;20280;-89
2022/11/21 02:29:34;;;;;;;36.07;15.17;;;;;;;-141.97;100.00;47876.59;4935392;29;20658;-89
2022/11/21 02:32:04;;;;;;;26.23;13.33;;;;;;;-141.97;100.00;47811.25;4919473;29;20189;-90
2022/11/21 02:34:29;;;;;;;27.23;13.00;;;;;;;-141.97;100.00;47818.94;4935379;29;20245;-89
2022/11/21 02:36:56;;;;;;;29.03;13.47;;;;;;;-141.97;100.00;47845.84;4919461;29;20173;-89
2022/11/21 02:39:35;;;;;;;27.63;12.43;;;;;;;-141.97;100.00;47838.16;4935176;29;20174;-90
2022/11/21 02:42:22;;;;;;;23.43;11.67;;;;;;;-141.97;100.00;47830.47;4919246;29;20693;-90
2022/11/21 02:44:56;;;;;;;25.77;11.83;;;;;;;-141.97;100.00;47838.16;4923948;29;20201;-90
2022/11/21 02:47:22;;;;;;;23.63;12.30;;;;;;;-141.97;100.00;47909.28;4955972;28;20187;-89
2022/11/21 02:50:01;;;;;;;24.40;11.93;;;;;;;-141.97;100.00;47895.81;4928312;29;20181;-90
2022/11/21 02:52:27;;;;;;;24.27;12.30;;;;;;;-141.97;100.00;47861.22;4918824;29;20845;-90
2022/11/21 02:54:52;;;;;;;25.07;12.10;;;;;;;-141.97;100.00;47834.31;4919206;29;20173;-90
2022/11/21 02:57:17;;;;;;;28.47;12.97;;;;;;;-141.97;100.00;47870.81;4919167;29;20169;-90
2022/11/21 02:59:43;;;;;;;79.53;39.93;;;;;;;-141.97;100.00;47853.53;4949439;28;20191;-89
2022/11/21 03:02:08;;;;;;;46.40;23.17;;;;;;;-141.97;100.00;47776.63;5007022;28;20252;-89
2022/11/21 03:04:34;;;;;;;39.30;20.60;;;;;;;-141.97;100.00;47984.25;5013629;28;20654;-90
2022/11/21 03:06:59;;;;;;;43.93;22.93;;;;;;;-141.97;100.00;47738.19;5013916;28;20270;-89
2022/11/21 03:09:24;;;;;;;48.03;25.17;;;;;;;-141.97;100.00;47947.72;5001186;28;20173;-90
2022/11/21 03:11:50;;;;;;;45.23;23.43;;;;;;;-141.97;100.00;47776.63;5019233;28;20198;-89
2022/11/21 03:14:15;;;;;;;46.60;24.63;;;;;;;-141.97;100.00;47734.34;5019343;28;20187;-90
2022/11/21 03:16:40;;;;;;;43.13;21.83;;;;;;;-141.97;100.00;47813.16;5014418;28;20232;-91
2022/11/21 03:19:06;;;;;;;35.93;17.17;;;;;;;-141.97;100.00;48001.53;4992703;28;20176;-91
2022/11/21 03:21:31;;;;;;;38.47;15.50;;;;;;;-141.97;100.00;47959.25;4992639;28;20164;-90
2022/11/21 03:23:57;;;;;;;32.87;15.60;;;;;;;-141.97;100.00;47722.81;4992554;28;20174;-89
2022/11/21 03:26:22;;;;;;;35.33;16.97;;;;;;;-141.97;100.00;47907.34;4992650;28;20187;-88
2022/11/21 03:28:47;;;;;;;41.23;18.47;;;;;;;-141.97;100.00;47797.78;4995086;28;20195;-90
2022/11/21 03:31:13;;;;;;;39.80;18.37;;;;;;;-141.97;100.00;47865.06;5000033;28;20172;-89
2022/11/21 03:33:38;;;;;;;37.60;17.80;;;;;;;-141.97;100.00;47980.41;5009174;28;20203;-89
2022/11/21 03:36:04;;;;;;;46.13;18.80;;;;;;;-141.97;100.00;47815.09;4992941;28;20514;-89
2022/11/21 03:38:29;;;;;;;44.10;18.40;;;;;;;-141.97;100.00;47943.88;4992306;28;20198;-89
2022/11/21 03:40:54;;;;;;;41.67;19.20;;;;;;;-141.97;100.00;47711.28;4995068;28;20222;-89
2022/11/21 03:43:20;;;;;;;39.73;17.37;;;;;;;-141.97;100.00;47809.31;4994555;28;20163;-90
2022/11/21 03:45:46;;;;;;;40.37;17.80;;;;;;;-141.97;100.00;47884.28;4992760;28;20215;-89
2022/11/21 03:48:12;;;;;;;41.77;17.93;;;;;;;-141.97;100.00;47945.81;4992190;28;20175;-90
2022/11/21 03:50:41;;;;;;;46.13;18.57;;;;;;;-141.97;100.00;47884.28;4992441;28;20179;-91
2022/11/21 03:53:07;;;;;;;39.40;17.77;;;;;;;-141.97;100.00;47817.00;4993525;28;20633;-90
2022/11/21 03:55:32;;;;;;;44.87;18.07;;;;;;;-141.97;100.00;47845.84;4975982;28;20167;-90
2022/11/21 03:57:57;;;;;;;42.57;18.33;;;;;;;-141.97;100.00;47747.81;4993778;28;20168;-89
2022/11/21 04:00:23;;;;;;;37.43;17.03;;;;;;;-141.97;100.00;47872.75;4975959;28;20167;-90
2022/11/21 04:02:48;;;;;;;124.47;56.17;;;;;;;-141.97;100.00;47930.41;4995108;28;20683;-91
2022/11/21 04:05:14;;;;;;;93.10;47.93;;;;;;;-141.97;100.00;47972.72;5011953;28;20245;-90
2022/11/21 04:07:39;;;;;;;86.67;39.03;;;;;;;-141.97;100.00;47847.75;4995566;28;20247;-91
2022/11/21 04:10:05;;;;;;;73.40;30.43;;;;;;;-141.97;100.00;47809.31;5013186;28;20198;-91
2022/11/21 04:12:30;;;;;;;66.60;28.47;;;;;;;-141.97;100.00;47765.09;5013575;28;20167;-90
2022/11/21 04:14:56;;;;;;;62.50;25.03;;;;;;;-141.97;100.00;47899.66;5011992;28;20178;-91
2022/11/21 04:17:21;;;;;;;65.90;24.07;;;;;;;-141.97;100.00;47718.97;5012946;28;20167;-90
2022/11/21 04:19:46;;;;;;;64.50;26.00;;;;;;;-141.97;100.00;47780.47;5012071;28;20268;-90
2022/11/21 04:22:12;;;;;;;68.77;24.77;;;;;;;-141.97;100.00;47957.34;5013138;28;20170;-91
2022/11/21 04:24:37;;;;;;;75.30;26.63;;;;;;;-141.97;100.00;47718.97;5011374;28;20367;-91
2022/11/21 04:27:02;;;;;;;91.37;28.83;;;;;;;-141.97;100.00;47711.28;5011350;28;20174;-90
2022/11/21 04:29:28;;;;;;;87.40;27.10;;;;;;;-141.97;100.00;47947.72;5012084;28;20175;-90
2022/11/21 04:31:53;;;;;;;118.27;42.40;;;;;;;-141.97;100.00;47891.97;5011514;28;20281;-91
2022/11/21 04:34:18;;;;;;;147.60;53.13;;;;;;;-141.97;100.00;47684.38;5013616;28;20170;-91
2022/11/21 04:36:44;;;;;;;110.80;41.43;;;;;;;-141.97;100.00;47711.28;5013042;28;20245;-90
2022/11/21 04:39:09;;;;;;;131.70;43.40;;;;;;;-141.97;100.00;47995.78;5012493;28;20202;-91
2022/11/21 04:41:35;;;;;;;116.10;41.93;;;;;;;-141.97;100.00;47647.84;5011791;28;20173;-91
2022/11/21 04:44:01;;;;;;;165.53;53.93;;;;;;;-141.97;100.00;47663.22;5012094;28;20293;-91
2022/11/21 04:46:26;;;;;;;275.10;55.03;;;;;;;-141.97;100.00;47924.66;5012130;28;20210;-90
2022/11/21 04:48:51;;;;;;;224.87;30.73;;;;;;;-141.97;100.00;47918.88;4994771;28;20170;-90
2022/11/21 04:51:17;;;;;;;119.60;27.97;;;;;;;-141.97;100.00;47965.03;5012840;28;20221;-91
2022/11/21 04:53:42;;;;;;;111.00;41.33;;;;;;;-141.97;100.00;47826.63;5011037;28;20182;-90
2022/11/21 04:56:08;;;;;;;108.37;36.30;;;;;;;-141.97;100.00;47749.72;4995161;28;20171;-90
2022/11/21 04:58:33;;;;;;;73.13;30.07;;;;;;;-141.97;100.00;47941.94;5011220;28;20176;-90
2022/11/21 05:01:05;;;;;;;75.90;32.47;;;;;;;-141.97;100.00;47861.22;5016055;28;20321;-91
2022/11/21 05:03:31;;;;;;;64.10;28.43;;;;;;;-141.97;100.00;47759.34;5003455;28;20175;-92
2022/11/21 05:05:56;;;;;;;67.57;30.73;;;;;;;-141.97;100.00;47822.78;5006776;28;20202;-91
2022/11/21 05:08:22;;;;;;;71.00;28.07;;;;;;;-141.97;100.00;47874.69;5021613;28;20163;-91
2022/11/21 05:13:31;;;;;;;76.40;28.27;;;;;;;-141.97;100.00;47811.25;5025822;28;20665;-91
2022/11/21 05:15:57;;;;;;;82.20;29.53;;;;;;;-141.97;100.00;47747.81;5019259;28;20167;-94
2022/11/21 05:18:24;;;;;;;134.03;31.17;;;;;;;-141.97;100.00;47842.00;5010874;28;20193;-92
2022/11/21 05:20:49;;;;;;;110.53;33.53;;;;;;;-141.97;100.00;47838.16;5012302;28;20242;-91
2022/11/21 05:23:18;;;;;;;153.73;52.43;;;;;;;-141.97;100.00;47872.75;5021100;28;20170;-91
2022/11/21 05:25:44;;;;;;;112.87;40.47;;;;;;;-141.97;100.00;47897.75;5015491;28;20555;-91
2022/11/21 05:28:09;;;;;;;107.57;36.30;;;;;;;-141.97;100.00;47805.47;5019607;28;20250;-91
2022/11/21 05:30:36;;;;;;;102.50;37.67;;;;;;;-141.97;100.00;47557.53;5028572;28;20213;-91
2022/11/21 05:33:01;;;;;;;94.77;35.00;;;;;;;-141.97;100.00;47688.22;5016566;28;20234;-89
2022/11/21 05:35:27;;;;;;;83.30;31.77;;;;;;;-141.97;100.00;47772.78;5012425;28;20250;-90
2022/11/21 05:37:58;;;;;;;79.30;31.70;;;;;;;-141.97;100.00;47915.03;5016965;28;20399;-90
2022/11/21 05:40:24;;;;;;;71.10;30.07;;;;;;;-141.97;100.00;47947.72;5019995;28;20182;-90
2022/11/21 05:45:33;;;;;;;63.07;27.97;;;;;;;-141.97;100.00;47965.03;5012612;28;20235;-89
2022/11/21 05:47:59;;;;;;;40.30;18.73;;;;;;;-141.97;100.00;47843.91;5010817;28;20194;-89
2022/11/21 05:50:25;;;;;;;89.10;33.73;;;;;;;-141.97;100.00;47843.91;4996353;28;20186;-90
2022/11/21 05:52:50;;;;;;;94.00;37.30;;;;;;;-141.97;100.00;47868.91;5016705;28;20217;-89
2022/11/21 05:55:16;;;;;;;111.67;43.83;;;;;;;-141.97;100.00;47803.56;5026005;28;20187;-88
2022/11/21 05:57:42;;;;;;;76.27;32.63;;;;;;;-141.97;100.00;47922.72;5018065;28;20190;-90
2022/11/21 06:00:08;;;;;;;81.37;35.03;;;;;;;-141.97;100.00;47811.25;5018729;28;20178;-90
2022/11/21 06:05:17;;;;;;;85.57;38.80;;;;;;;-141.97;100.00;47828.53;5032060;28;20252;-91
2022/11/21 06:07:43;;;;;;;85.47;39.90;;;;;;;-141.97;100.00;47984.25;5029107;28;20182;-90
2022/11/21 06:10:08;;;;;;;104.43;47.97;;;;;;;-141.97;100.00;47878.53;5018959;28;20213;-90
2022/11/21 06:12:34;;;;;;;72.93;35.70;;;;;;;-141.97;100.00;47951.56;5030804;28;20159;-90
2022/11/21 06:15:00;;;;;;;53.63;24.87;;;;;;;-141.97;100.00;47988.09;5010679;28;20170;-93
2022/11/21 06:17:27;;;;;;;86.27;36.03;;;;;;;-141.97;100.00;47753.56;5028646;28;20224;-90
2022/11/21 06:19:55;;;;;;;99.60;44.50;;;;;;;-141.97;100.00;47938.09;4999175;28;20213;-88
2022/11/21 06:22:21;;;;;;;77.23;36.53;;;;;;;-141.97;100.00;47695.91;5025740;28;20182;-90
2022/11/21 06:24:46;;;;;;;89.07;38.70;;;;;;;-141.97;100.00;47718.97;5016913;28;20194;-89
2022/11/21 06:27:12;;;;;;;64.63;25.87;;;;;;;-141.97;100.00;47915.03;5020024;28;20655;-90
2022/11/21 06:29:39;;;;;;;75.83;39.90;;;;;;;-141.97;100.00;47947.72;5035688;28;20154;-92
2022/11/21 06:32:04;;;;;;;60.63;29.77;;;;;;;-141.97;100.00;47826.63;5006339;28;20171;-91
2022/11/21 06:34:30;;;;;;;57.90;26.27;;;;;;;-141.97;100.00;47893.91;5018953;28;20234;-93
2022/11/21 06:36:55;;;;;;;63.30;30.10;;;;;;;-141.97;100.00;47947.72;5011428;28;20680;-93
2022/11/21 06:39:21;;;;;;;56.03;26.17;;;;;;;-141.97;100.00;47747.81;5009195;28;20206;-92
2022/11/21 06:41:51;;;;;;;92.17;45.23;;;;;;;-141.97;100.00;47843.91;5016677;28;20678;-92
2022/11/21 06:44:17;;;;;;;122.87;57.27;;;;;;;-141.97;100.00;47688.22;4996615;28;20198;-91
2022/11/21 06:46:43;;;;;;;105.90;51.13;;;;;;;-141.97;100.00;47676.69;4980960;28;20284;-91
2022/11/21 06:49:09;;;;;;;88.77;44.30;;;;;;;-141.97;100.00;47911.19;4980254;28;20202;-92
2022/11/21 06:51:40;;;;;;;87.43;45.63;;;;;;;-141.97;100.00;47722.81;5012438;28;20191;-92
2022/11/21 06:54:05;;;;;;;96.33;48.70;;;;;;;-141.97;100.00;47838.16;5000488;28;20266;-92
2022/11/21 06:56:31;;;;;;;70.63;41.53;;;;;;;-141.97;100.00;47713.22;4998634;28;20246;-91
2022/11/21 06:58:57;;;;;;;53.60;28.43;;;;;;;-141.97;100.00;47655.53;4978403;28;20569;-91
2022/11/21 07:01:23;;;;;;;60.60;33.07;;;;;;;-141.97;100.00;47694.00;4994131;28;20255;-92
2022/11/21 07:03:48;;;;;;;51.97;26.27;;;;;;;-141.97;100.00;47938.09;4975763;28;20195;-91
2022/11/21 07:06:14;;;;;;;71.67;43.43;;;;;;;-141.97;100.00;47786.25;4993190;28;20230;-91
2022/11/21 07:08:42;;;;;;;59.10;35.80;;;;;;;-141.97;100.00;47726.66;5003340;28;20201;-92
2022/11/21 07:11:10;;;;;;;43.90;25.87;;;;;;;-141.97;100.00;47763.19;5006738;28;20238;-82
2022/11/21 07:13:36;;;;;;;69.13;39.93;;;;;;;-141.97;100.00;47851.59;4993852;28;20171;-82
2022/11/21 07:16:04;;;;;;;54.37;33.63;;;;;;;-141.97;100.00;47947.72;4993980;28;20163;-81
2022/11/21 07:18:30;;;;;;;47.07;26.70;;;;;;;-141.97;100.00;47857.38;5005741;28;20175;-82
2022/11/21 07:21:00;;;;;;;36.13;20.53;;;;;;;-141.97;100.00;47855.44;5006008;28;20610;-81
2022/11/21 07:23:27;;;;;;;32.53;16.43;;;;;;;-141.97;100.00;47845.84;4989368;28;20179;-81
2022/11/21 07:25:52;;;;;;;26.97;14.73;;;;;;;-141.97;100.00;47845.84;4993111;28;20238;-81
2022/11/21 07:28:18;;;;;;;26.90;15.50;;;;;;;-141.97;100.00;47834.31;5008777;28;20210;-82
2022/11/21 07:30:43;;;;;;;24.80;13.67;;;;;;;-141.97;100.00;47865.06;5009667;28;20254;-82
2022/11/21 07:33:09;;;;;;;30.10;15.47;;;;;;;-141.97;100.00;47853.53;5011191;28;20638;-81
2022/11/21 07:35:35;;;;;;;35.13;19.80;;;;;;;-141.97;100.00;47868.91;5012146;28;20166;-80
2022/11/21 07:38:01;;;;;;;22.40;12.40;;;;;;;-141.97;100.00;47778.56;5012816;28;20177;-80
2022/11/21 07:40:27;;;;;;;27.77;16.67;;;;;;;-141.97;100.00;47826.63;5011494;28;20199;-80
2022/11/21 07:42:52;;;;;;;28.87;16.87;;;;;;;-141.97;100.00;47870.81;5008410;28;20540;-81
2022/11/21 07:45:18;;;;;;;28.80;17.40;;;;;;;-141.97;100.00;47849.69;5007340;28;20206;-81
2022/11/21 07:47:43;;;;;;;41.87;26.87;;;;;;;-141.97;100.00;47861.22;5010774;28;20178;-82
2022/11/21 07:50:11;;;;;;;35.93;22.23;;;;;;;-141.97;100.00;47880.44;5009795;28;20179;-82
2022/11/21 07:52:37;;;;;;;35.87;16.13;;;;;;;-141.97;100.00;47842.00;5008064;28;20183;-83
2022/11/21 07:55:04;;;;;;;26.43;15.17;;;;;;;-141.97;100.00;47842.00;5010399;28;20178;-82
2022/11/21 07:57:31;;;;;;;29.17;14.60;;;;;;;-141.97;100.00;47845.84;4994885;28;20226;-82
2022/11/21 07:59:56;;;;;;;22.67;12.00;;;;;;;-141.97;100.00;47865.06;5008006;28;20245;-80
2022/11/21 08:02:24;;;;;;;21.13;11.77;;;;;;;-141.97;100.00;47830.47;5022369;28;20218;-81
2022/11/21 08:04:49;;;;;;;21.23;11.50;;;;;;;-141.97;100.00;47830.47;5016447;28;20202;-82
2022/11/21 08:07:16;;;;;;;21.80;10.60;;;;;;;-141.97;100.00;47817.00;5011433;28;20186;-81
2022/11/21 08:09:42;;;;;;;20.73;10.53;;;;;;;-141.97;100.00;47838.16;5009487;28;20641;-84
2022/11/21 08:12:09;;;;;;;20.87;10.10;;;;;;;-141.97;100.00;47865.06;5004575;28;20167;-83
2022/11/21 08:14:35;;;;;;;19.00;10.87;;;;;;;-141.97;100.00;47836.22;5012557;28;20234;-81
2022/11/21 08:17:00;;;;;;;20.03;9.57;;;;;;;-141.97;100.00;47857.38;4994382;28;20585;-81
2022/11/21 08:19:26;;;;;;;18.30;9.30;;;;;;;-141.97;100.00;47836.22;5011690;28;20171;-81
2022/11/21 08:21:51;;;;;;;19.37;10.67;;;;;;;-141.97;100.00;47843.91;5011537;28;20175;-81
2022/11/21 08:24:16;;;;;;;23.73;11.03;;;;;;;-141.97;100.00;47826.63;5012903;28;20167;-81
2022/11/21 08:26:44;;;;;;;18.80;9.70;;;;;;;-141.97;100.00;47828.53;5011870;28;20194;-82
2022/11/21 08:29:10;;;;;;;18.13;9.67;;;;;;;-141.97;100.00;47811.25;5012062;28;20250;-83
2022/11/21 08:31:37;;;;;;;19.40;10.67;;;;;;;-141.97;100.00;47820.84;5011895;28;20205;-82
2022/11/21 08:34:03;;;;;;;20.77;11.37;;;;;;;-141.97;100.00;47980.41;5012508;28;20178;-81
2022/11/21 08:36:28;;;;;;;39.63;21.13;;;;;;;-141.97;100.00;47788.19;5011633;28;20167;-82
2022/11/21 08:38:53;;;;;;;18.57;10.70;;;;;;;-141.97;98.83;47815.09;5012825;28;20159;-80
2022/11/21 08:44:04;;;;;;;70.67;38.90;;;;;;;-141.97;100.00;47747.81;5011661;28;20201;-81
2022/11/21 08:46:32;;;;;;;30.97;17.43;;;;;;;-141.97;100.00;47834.31;5011162;28;20569;-81
2022/11/21 08:48:58;;;;;;;14.50;7.90;;;;;;;-141.97;96.95;47792.03;5011366;28;20182;-81
2022/11/21 08:51:24;;;;;;;13.53;6.87;;;;;;;-141.97;95.88;47786.25;5010937;28;20250;-81
2022/11/21 08:53:49;;;;;;;17.10;6.57;;;;;;;-141.97;96.46;47747.81;5010974;28;20221;-81
2022/11/21 08:56:15;;;;;;;13.00;6.50;;;;;;;-141.97;94.18;47792.03;5010032;28;20170;-82
2022/11/21 08:58:40;;;;;;;12.20;6.43;;;;;;;-141.97;96.70;47830.47;5011995;28;20258;-82
2022/11/21 09:01:05;;;;;;;12.70;6.90;;;;;;;-141.97;94.16;47784.34;5006249;28;20215;-82
2022/11/21 09:03:31;;;;;;;7.13;2.80;;;;;;;-141.97;86.71;47790.09;4991541;28;20214;-81
2022/11/21 09:05:58;;;;;;;3.47;1.50;;;;;;;-141.97;80.59;47830.47;4992000;28;20206;-81
2022/11/21 09:08:23;;;;;;;3.33;1.30;;;;;;;-141.97;53.88;47745.88;4975500;28;20560;-91
2022/11/21 09:10:49;;;;;;;3.60;1.73;;;;;;;-141.97;54.24;47909.28;4993650;28;20171;-89
2022/11/21 09:13:14;;;;;;;2.37;1.00;;;;;;;-141.97;53.30;47782.41;4992076;28;20651;-90
2022/11/21 09:18:24;;;;;;;5.10;1.97;;;;;;;-141.97;52.36;47795.88;5002058;28;20182;-88
2022/11/21 09:20:49;;;;;;;2.60;1.27;;;;;;;-141.97;51.23;47911.19;4986818;28;20167;-89
2022/11/21 09:23:15;;;;;;;5.23;1.70;;;;;;;-141.97;52.25;47818.94;4976008;28;20182;-88
2022/11/21 09:25:41;;;;;;;7.50;1.70;;;;;;;-141.97;52.63;47803.56;4978772;28;20226;-89
2022/11/21 09:28:09;;;;;;;12.57;5.73;;;;;;;-141.97;52.81;47757.41;4978416;28;20184;-90
2022/11/21 09:30:35;;;;;;;5.93;2.57;;;;;;;-141.97;52.34;47682.47;4996627;28;20552;-89
2022/11/21 09:33:02;;;;;;;4.27;1.80;;;;;;;-141.97;50.73;47811.25;4996024;28;20643;-89
2022/11/21 09:35:28;;;;;;;2.77;1.60;;;;;;;-141.97;49.60;47888.13;4996501;28;20179;-90
2022/11/21 09:37:53;;;;;;;2.80;1.47;;;;;;;-141.97;48.40;47765.09;4978792;28;20171;-92
2022/11/21 09:40:19;;;;;;;6.03;1.90;;;;;;;-141.97;47.22;47911.19;4980545;28;20271;-91
2022/11/21 09:42:57;;;;;;;6.20;2.93;;;;;;;-141.97;47.87;47765.09;4972311;28;20238;-90
2022/11/21 09:45:29;;;;;;;1.30;0.90;;;;;;;-141.97;47.63;47826.63;4996886;28;20208;-90
2022/11/21 09:47:54;;;;;;;3.53;1.73;;;;;;;-141.97;48.53;47628.63;4979612;28;20183;-90
2022/11/21 09:50:30;;;;;;;1.47;1.00;;;;;;;-141.97;48.50;47768.94;4980174;28;20171;-90
2022/11/21 09:53:01;;;;;;;2.73;1.40;;;;;;;-141.97;48.05;47780.47;4996702;28;20261;-89
2022/11/21 09:55:47;;;;;;;4.17;1.60;;;;;;;-141.97;48.40;47745.88;4996293;28;20163;-90
2022/11/21 09:58:38;;;;;;;4.03;1.57;;;;;;;-141.97;47.95;47778.56;4995242;28;20183;-89
2022/11/21 10:01:03;;;;;;;4.80;1.70;;;;;;;-141.97;49.23;47838.16;4984791;28;20245;-90
2022/11/21 10:03:34;;;;;;;3.70;1.50;;;;;;;-141.97;48.64;47757.41;5014364;28;20183;-90
2022/11/21 10:06:05;;;;;;;2.23;1.00;;;;;;;-141.97;48.38;47711.28;5005981;28;20195;-89
2022/11/21 10:09:12;;;;;;;3.20;1.00;;;;;;;-141.97;46.95;47768.94;5015020;28;20167;-90
2022/11/21 10:14:46;;;;;;;3.67;1.30;;;;;;;-141.97;45.69;47732.44;4954644;29;20760;-91
2022/11/21 10:17:26;;;;;;;1.90;0.83;;;;;;;-141.97;45.29;47749.72;4955186;29;20192;-87
2022/11/21 10:20:09;;;;;;;4.77;1.10;;;;;;;-141.97;45.25;47780.47;4954084;29;20185;-87
2022/11/21 10:23:19;;;;;;;1.73;1.23;;;;;;;-141.97;47.00;47780.47;4953648;28;20207;-87
2022/11/21 10:26:20;;;;;;;10.07;4.10;;;;;;;-141.97;52.64;47763.19;4915940;29;20266;-87
2022/11/21 10:28:51;;;;;;;7.63;4.00;;;;;;;-141.97;54.83;47745.88;4921995;29;20213;-87
2022/11/21 10:31:18;;;;;;;11.07;5.80;;;;;;;-141.97;55.38;47755.50;4932011;29;20198;-85
2022/11/21 10:33:44;;;;;;;14.57;7.37;;;;;;;-141.97;55.64;47788.19;4940503;29;20194;-86
2022/11/21 10:36:29;;;;;;;13.50;6.03;;;;;;;-141.97;56.17;47768.94;4918887;29;20190;-86
2022/11/21 10:39:01;;;;;;;11.97;5.40;;;;;;;-141.97;55.83;47788.19;4922077;29;20607;-86
2022/11/21 10:41:49;;;;;;;9.00;3.40;;;;;;;-141.97;56.32;47697.84;4918566;29;20214;-88
2022/11/21 10:47:27;;;;;;;14.60;6.93;;;;;;;-141.97;58.82;47763.19;4920238;29;20652;-89
2022/11/21 10:50:08;;;;;;;19.30;11.47;;;;;;;-141.97;58.67;47747.81;4913714;29;20206;-85
2022/11/21 10:56:21;;;;;;;54.27;33.17;;;;;;;-141.97;58.65;47590.19;4903209;29;20219;-90
2022/11/21 10:58:54;;;;;;;13.50;7.83;;;;;;;-141.97;58.64;47755.50;4939935;29;20172;-91
2022/11/21 11:01:34;;;;;;;19.93;11.23;;;;;;;-141.97;59.15;47807.41;4953303;28;20224;-89
2022/11/21 11:04:08;;;;;;;26.90;13.47;;;;;;;-141.97;59.21;47768.94;4954414;29;20288;-89
2022/11/21 11:06:37;;;;;;;46.47;29.50;;;;;;;-141.97;59.48;47726.66;4952950;29;20299;-89
2022/11/21 11:09:03;;;;;;;29.63;17.60;;;;;;;-141.97;58.42;47793.94;4954014;29;20621;-87
2022/11/21 11:11:29;;;;;;;17.33;11.20;;;;;;;-141.97;57.61;47768.94;4952999;29;20223;-88
2022/11/21 11:13:56;;;;;;;22.33;13.00;;;;;;;-141.97;57.44;47849.69;4936737;29;20192;-88
2022/11/21 11:16:24;;;;;;;23.77;13.90;;;;;;;-141.97;57.66;47907.34;4953678;29;20587;-88
2022/11/21 11:18:54;;;;;;;43.67;22.17;;;;;;;-141.97;57.39;47742.03;4954352;29;20189;-88
2022/11/21 11:21:23;;;;;;;38.33;23.13;;;;;;;-141.97;57.69;47792.03;4952111;29;20271;-88
2022/11/21 11:23:51;;;;;;;20.10;10.90;;;;;;;-141.97;57.81;47788.19;4954161;29;20256;-87